sensor_id;sensor_type;location;lat;lon;timestamp;pressure;altitude;pressure_sealevel;temperature;humidity
45327;BME280;31062;49.678;24.560;2022-08-14T00:01:26;97873.38;;;18.46;83.08
45327;BME280;31062;49.678;24.560;2022-08-14T00:04:15;97798.09;;;17.89;82.96
45327;BME280;31062;49.678;24.560;2022-08-14T00:07:20;97888.06;;;18.44;83.31
45327;BME280;31062;49.678;24.560;2022-08-14T00:10:08;97874.34;;;18.34;83.11
45327;BME280;31062;49.678;24.560;2022-08-14T00:13:18;97737.97;;;17.43;82.98
45327;BME280;31062;49.678;24.560;2022-08-14T00:16:06;97741.50;;;17.43;82.55
45327;BME280;31062;49.678;24.560;2022-08-14T00:18:52;97894.53;;;18.49;82.58
45327;BME280;31062;49.678;24.560;2022-08-14T00:21:57;97909.88;;;18.46;82.51
45327;BME280;31062;49.678;24.560;2022-08-14T00:24:44;97818.59;;;17.93;83.02
45327;BME280;31062;49.678;24.560;2022-08-14T00:27:29;97896.63;;;18.48;83.26
45327;BME280;31062;49.678;24.560;2022-08-14T00:30:22;97886.75;;;18.47;83.48
45327;BME280;31062;49.678;24.560;2022-08-14T00:33:11;97884.38;;;18.40;83.81
45327;BME280;31062;49.678;24.560;2022-08-14T00:36:00;97842.47;;;18.10;83.98
45327;BME280;31062;49.678;24.560;2022-08-14T00:39:06;97743.41;;;17.39;84.77
45327;BME280;31062;49.678;24.560;2022-08-14T00:41:54;97893.88;;;18.32;84.90
45327;BME280;31062;49.678;24.560;2022-08-14T00:44:42;97882.66;;;18.32;85.35
45327;BME280;31062;49.678;24.560;2022-08-14T00:47:28;97721.25;;;17.29;85.07
45327;BME280;31062;49.678;24.560;2022-08-14T00:50:21;97853.16;;;18.31;85.31
45327;BME280;31062;49.678;24.560;2022-08-14T00:53:10;97883.16;;;18.45;85.00
45327;BME280;31062;49.678;24.560;2022-08-14T00:55:57;97834.38;;;18.18;84.77
45327;BME280;31062;49.678;24.560;2022-08-14T00:58:43;97718.06;;;17.52;84.60
45327;BME280;31062;49.678;24.560;2022-08-14T01:01:33;97730.16;;;17.57;84.47
45327;BME280;31062;49.678;24.560;2022-08-14T01:04:21;97823.50;;;18.26;84.82
45327;BME280;31062;49.678;24.560;2022-08-14T01:07:28;97808.97;;;18.14;84.96
45327;BME280;31062;49.678;24.560;2022-08-14T01:10:24;97794.78;;;18.10;85.21
45327;BME280;31062;49.678;24.560;2022-08-14T01:13:36;97846.03;;;18.46;85.39
45327;BME280;31062;49.678;24.560;2022-08-14T01:16:27;97704.44;;;17.45;84.52
45327;BME280;31062;49.678;24.560;2022-08-14T01:19:15;97856.56;;;18.46;84.86
45327;BME280;31062;49.678;24.560;2022-08-14T01:22:19;97840.41;;;18.28;85.03
45327;BME280;31062;49.678;24.560;2022-08-14T01:25:11;97819.72;;;18.20;85.17
45327;BME280;31062;49.678;24.560;2022-08-14T01:27:56;97833.91;;;18.42;85.11
45327;BME280;31062;49.678;24.560;2022-08-14T01:30:44;97734.50;;;17.60;85.20
45327;BME280;31062;49.678;24.560;2022-08-14T01:33:30;97761.75;;;17.91;85.56
45327;BME280;31062;49.678;24.560;2022-08-14T01:36:36;97850.22;;;18.45;85.60
45327;BME280;31062;49.678;24.560;2022-08-14T01:39:24;97802.50;;;18.27;85.72
45327;BME280;31062;49.678;24.560;2022-08-14T01:42:10;97690.97;;;17.41;85.72
45327;BME280;31062;49.678;24.560;2022-08-14T01:45:16;97838.50;;;18.51;85.77
45327;BME280;31062;49.678;24.560;2022-08-14T01:48:11;97801.63;;;18.23;86.14
45327;BME280;31062;49.678;24.560;2022-08-14T01:51:05;97847.00;;;18.53;86.41
45327;BME280;31062;49.678;24.560;2022-08-14T01:54:10;97769.44;;;18.08;86.46
45327;BME280;31062;49.678;24.560;2022-08-14T01:56:58;97801.53;;;18.39;86.38
45327;BME280;31062;49.678;24.560;2022-08-14T01:59:44;97793.91;;;18.41;86.44
45327;BME280;31062;49.678;24.560;2022-08-14T02:02:34;97771.53;;;18.25;86.22
45327;BME280;31062;49.678;24.560;2022-08-14T02:05:24;97833.63;;;18.69;86.41
45327;BME280;31062;49.678;24.560;2022-08-14T02:08:20;97783.25;;;18.38;86.43
45327;BME280;31062;49.678;24.560;2022-08-14T02:11:19;97828.81;;;18.71;86.46
45327;BME280;31062;49.678;24.560;2022-08-14T02:14:10;97854.25;;;18.75;86.67
45327;BME280;31062;49.678;24.560;2022-08-14T02:16:59;97714.22;;;17.95;86.50
45327;BME280;31062;49.678;24.560;2022-08-14T02:19:45;97835.56;;;18.82;86.36
45327;BME280;31062;49.678;24.560;2022-08-14T02:22:32;97828.41;;;18.79;86.67
45327;BME280;31062;49.678;24.560;2022-08-14T02:25:18;97796.88;;;18.45;86.38
45327;BME280;31062;49.678;24.560;2022-08-14T02:28:04;97834.25;;;18.85;86.73
45327;BME280;31062;49.678;24.560;2022-08-14T02:31:09;97835.13;;;18.90;86.70
45327;BME280;31062;49.678;24.560;2022-08-14T02:34:02;97817.50;;;18.87;86.77
45327;BME280;31062;49.678;24.560;2022-08-14T02:37:05;97846.53;;;18.94;86.71
45327;BME280;31062;49.678;24.560;2022-08-14T02:39:51;97684.00;;;17.93;86.64
45327;BME280;31062;49.678;24.560;2022-08-14T02:42:37;97671.84;;;17.87;86.54
45327;BME280;31062;49.678;24.560;2022-08-14T02:45:25;97684.81;;;17.96;86.70
45327;BME280;31062;49.678;24.560;2022-08-14T02:48:23;97800.97;;;18.77;86.29
45327;BME280;31062;49.678;24.560;2022-08-14T02:51:35;97833.13;;;18.92;86.47
45327;BME280;31062;49.678;24.560;2022-08-14T02:54:22;97699.47;;;17.94;86.33
45327;BME280;31062;49.678;24.560;2022-08-14T02:57:07;97844.22;;;18.88;86.09
45327;BME280;31062;49.678;24.560;2022-08-14T03:00:00;97720.06;;;18.01;86.08
45327;BME280;31062;49.678;24.560;2022-08-14T03:02:50;97858.03;;;18.82;86.41
45327;BME280;31062;49.678;24.560;2022-08-14T03:05:43;97717.03;;;17.95;86.43
45327;BME280;31062;49.678;24.560;2022-08-14T03:08:29;97725.44;;;18.13;86.52
45327;BME280;31062;49.678;24.560;2022-08-14T03:11:19;97809.63;;;18.84;86.80
45327;BME280;31062;49.678;24.560;2022-08-14T03:14:07;97720.72;;;18.17;86.77
45327;BME280;31062;49.678;24.560;2022-08-14T03:16:55;97710.63;;;18.10;86.71
45327;BME280;31062;49.678;24.560;2022-08-14T03:19:41;97685.47;;;17.94;86.75
45327;BME280;31062;49.678;24.560;2022-08-14T03:22:27;97825.50;;;18.95;86.85
45327;BME280;31062;49.678;24.560;2022-08-14T03:25:14;97686.34;;;17.99;86.71
45327;BME280;31062;49.678;24.560;2022-08-14T03:28:03;97773.00;;;18.62;86.97
45327;BME280;31062;49.678;24.560;2022-08-14T03:30:50;97822.88;;;18.99;86.87
45327;BME280;31062;49.678;24.560;2022-08-14T03:33:40;97811.94;;;18.89;86.87
45327;BME280;31062;49.678;24.560;2022-08-14T03:36:27;97713.97;;;18.24;86.88
45327;BME280;31062;49.678;24.560;2022-08-14T03:39:36;97811.00;;;19.00;87.14
45327;BME280;31062;49.678;24.560;2022-08-14T03:42:25;97810.31;;;19.02;87.02
45327;BME280;31062;49.678;24.560;2022-08-14T03:45:21;97817.47;;;19.05;87.26
45327;BME280;31062;49.678;24.560;2022-08-14T03:48:19;97683.84;;;18.07;87.09
45327;BME280;31062;49.678;24.560;2022-08-14T03:51:15;97798.25;;;18.80;87.29
45327;BME280;31062;49.678;24.560;2022-08-14T03:54:04;97836.41;;;19.04;87.06
45327;BME280;31062;49.678;24.560;2022-08-14T03:56:55;97854.63;;;19.03;87.25
45327;BME280;31062;49.678;24.560;2022-08-14T03:59:47;97805.22;;;18.79;87.26
45327;BME280;31062;49.678;24.560;2022-08-14T04:02:32;97814.59;;;18.85;86.86
45327;BME280;31062;49.678;24.560;2022-08-14T04:05:31;97699.25;;;18.06;86.95
45327;BME280;31062;49.678;24.560;2022-08-14T04:08:27;97720.00;;;18.17;86.89
45327;BME280;31062;49.678;24.560;2022-08-14T04:11:17;97709.03;;;18.05;86.80
45327;BME280;31062;49.678;24.560;2022-08-14T04:14:04;97850.31;;;19.00;87.10
45327;BME280;31062;49.678;24.560;2022-08-14T04:16:51;97850.72;;;18.93;87.12
45327;BME280;31062;49.678;24.560;2022-08-14T04:19:38;97827.63;;;18.77;nan
45327;BME280;31062;49.678;24.560;2022-08-14T04:22:23;97869.00;;;18.94;87.58
45327;BME280;31062;49.678;24.560;2022-08-14T04:25:09;97873.72;;;18.89;87.56
45327;BME280;31062;49.678;24.560;2022-08-14T04:27:55;97810.34;;;18.49;87.51
45327;BME280;31062;49.678;24.560;2022-08-14T04:30:47;97837.09;;;18.67;87.69
45327;BME280;31062;49.678;24.560;2022-08-14T04:33:33;97836.31;;;18.65;87.89
45327;BME280;31062;49.678;24.560;2022-08-14T04:36:19;97787.00;;;18.26;87.66
45327;BME280;31062;49.678;24.560;2022-08-14T04:39:07;97717.03;;;17.95;87.64
45327;BME280;31062;49.678;24.560;2022-08-14T04:42:12;97835.72;;;18.86;87.64
45327;BME280;31062;49.678;24.560;2022-08-14T04:45:21;97744.06;;;18.22;87.66
45327;BME280;31062;49.678;24.560;2022-08-14T04:48:08;97837.91;;;19.07;nan
45327;BME280;31062;49.678;24.560;2022-08-14T04:51:20;97819.09;;;18.92;87.39
45327;BME280;31062;49.678;24.560;2022-08-14T04:54:14;97835.84;;;19.08;87.73
45327;BME280;31062;49.678;24.560;2022-08-14T04:57:01;97831.78;;;18.93;87.99
45327;BME280;31062;49.678;24.560;2022-08-14T04:59:47;97844.72;;;19.20;88.36
45327;BME280;31062;49.678;24.560;2022-08-14T05:02:35;97849.69;;;19.22;88.57
45327;BME280;31062;49.678;24.560;2022-08-14T05:05:22;97818.03;;;19.01;88.40
45327;BME280;31062;49.678;24.560;2022-08-14T05:08:10;97823.88;;;19.07;88.38
45327;BME280;31062;49.678;24.560;2022-08-14T05:11:20;97840.03;;;19.27;88.64
45327;BME280;31062;49.678;24.560;2022-08-14T05:14:06;97821.78;;;19.08;88.69
45327;BME280;31062;49.678;24.560;2022-08-14T05:17:12;97816.09;;;19.06;88.64
45327;BME280;31062;49.678;24.560;2022-08-14T05:19:58;97835.50;;;19.17;88.71
45327;BME280;31062;49.678;24.560;2022-08-14T05:23:07;97842.72;;;19.23;88.95
45327;BME280;31062;49.678;24.560;2022-08-14T05:26:00;97852.59;;;19.24;88.95
45327;BME280;31062;49.678;24.560;2022-08-14T05:29:01;97845.59;;;19.25;89.13
45327;BME280;31062;49.678;24.560;2022-08-14T05:31:47;97842.13;;;19.26;89.42
45327;BME280;31062;49.678;24.560;2022-08-14T05:34:42;97793.97;;;18.96;89.33
45327;BME280;31062;49.678;24.560;2022-08-14T05:37:30;97757.28;;;18.55;89.18
45327;BME280;31062;49.678;24.560;2022-08-14T05:40:17;97831.31;;;19.18;89.38
45327;BME280;31062;49.678;24.560;2022-08-14T05:43:04;97806.97;;;19.05;90.15
45327;BME280;31062;49.678;24.560;2022-08-14T05:45:51;97859.94;;;19.33;89.92
45327;BME280;31062;49.678;24.560;2022-08-14T05:48:40;97796.00;;;19.13;90.11
45327;BME280;31062;49.678;24.560;2022-08-14T05:51:27;97848.94;;;19.39;90.44
45327;BME280;31062;49.678;24.560;2022-08-14T05:54:15;97828.63;;;19.40;91.08
45327;BME280;31062;49.678;24.560;2022-08-14T05:57:15;97765.88;;;18.96;90.98
45327;BME280;31062;49.678;24.560;2022-08-14T06:00:02;97815.34;;;19.43;91.44
45327;BME280;31062;49.678;24.560;2022-08-14T06:02:50;97703.28;;;18.74;91.49
45327;BME280;31062;49.678;24.560;2022-08-14T06:05:37;97827.78;;;19.55;91.71
45327;BME280;31062;49.678;24.560;2022-08-14T06:08:26;97835.78;;;19.63;91.66
45327;BME280;31062;49.678;24.560;2022-08-14T06:11:21;97762.16;;;19.09;91.54
45327;BME280;31062;49.678;24.560;2022-08-14T06:14:15;97856.91;;;19.64;91.59
45327;BME280;31062;49.678;24.560;2022-08-14T06:17:08;97847.03;;;19.63;92.09
45327;BME280;31062;49.678;24.560;2022-08-14T06:19:59;97833.25;;;19.71;91.82
45327;BME280;31062;49.678;24.560;2022-08-14T06:22:46;97829.94;;;19.77;92.09
45327;BME280;31062;49.678;24.560;2022-08-14T06:25:33;97821.00;;;19.82;91.18
45327;BME280;31062;49.678;24.560;2022-08-14T06:28:23;97799.94;;;19.64;90.84
45327;BME280;31062;49.678;24.560;2022-08-14T06:31:13;97828.06;;;19.83;90.80
45327;BME280;31062;49.678;24.560;2022-08-14T06:33:59;97839.44;;;19.87;90.57
45327;BME280;31062;49.678;24.560;2022-08-14T06:37:05;97783.72;;;19.62;90.78
45327;BME280;31062;49.678;24.560;2022-08-14T06:39:53;97838.94;;;19.93;90.91
45327;BME280;31062;49.678;24.560;2022-08-14T06:42:40;97836.97;;;19.97;91.33
45327;BME280;31062;49.678;24.560;2022-08-14T06:45:27;97785.38;;;19.69;91.39
45327;BME280;31062;49.678;24.560;2022-08-14T06:48:20;97830.06;;;20.01;91.12
45327;BME280;31062;49.678;24.560;2022-08-14T06:51:08;97828.75;;;20.04;91.32
45327;BME280;31062;49.678;24.560;2022-08-14T06:53:55;97836.53;;;20.05;91.45
45327;BME280;31062;49.678;24.560;2022-08-14T06:56:41;97802.38;;;19.93;91.64
45327;BME280;31062;49.678;24.560;2022-08-14T06:59:38;97759.28;;;19.67;91.86
45327;BME280;31062;49.678;24.560;2022-08-14T07:02:24;97825.09;;;20.21;91.64
45327;BME280;31062;49.678;24.560;2022-08-14T07:05:31;97816.72;;;20.23;92.13
45327;BME280;31062;49.678;24.560;2022-08-14T07:08:39;97818.09;;;20.22;92.33
45327;BME280;31062;49.678;24.560;2022-08-14T07:11:27;97824.16;;;20.34;92.38
45327;BME280;31062;49.678;24.560;2022-08-14T07:14:14;97759.97;;;20.09;92.72
45327;BME280;31062;49.678;24.560;2022-08-14T07:17:00;97822.25;;;20.62;92.39
45327;BME280;31062;49.678;24.560;2022-08-14T07:19:47;97836.66;;;20.72;92.57
45327;BME280;31062;49.678;24.560;2022-08-14T07:22:35;97707.38;;;19.91;91.01
45327;BME280;31062;49.678;24.560;2022-08-14T07:25:42;97806.66;;;20.59;91.75
45327;BME280;31062;49.678;24.560;2022-08-14T07:28:33;97818.22;;;20.91;90.86
45327;BME280;31062;49.678;24.560;2022-08-14T07:31:28;97826.25;;;21.01;90.54
45327;BME280;31062;49.678;24.560;2022-08-14T07:34:14;97807.53;;;20.88;90.03
45327;BME280;31062;49.678;24.560;2022-08-14T07:37:19;97832.13;;;21.09;90.73
45327;BME280;31062;49.678;24.560;2022-08-14T07:40:05;97748.13;;;20.56;90.37
45327;BME280;31062;49.678;24.560;2022-08-14T07:42:52;97716.81;;;20.44;89.88
45327;BME280;31062;49.678;24.560;2022-08-14T07:45:39;97836.03;;;21.22;90.15
45327;BME280;31062;49.678;24.560;2022-08-14T07:48:25;97829.84;;;21.27;89.61
45327;BME280;31062;49.678;24.560;2022-08-14T07:51:11;97812.25;;;21.27;89.51
45327;BME280;31062;49.678;24.560;2022-08-14T07:53:57;97826.00;;;21.40;89.68
45327;BME280;31062;49.678;24.560;2022-08-14T07:56:43;97797.47;;;21.28;90.00
45327;BME280;31062;49.678;24.560;2022-08-14T07:59:33;97696.91;;;20.61;90.13
45327;BME280;31062;49.678;24.560;2022-08-14T08:02:29;97833.69;;;21.62;89.36
45327;BME280;31062;49.678;24.560;2022-08-14T08:05:21;97764.91;;;21.23;89.08
45327;BME280;31062;49.678;24.560;2022-08-14T08:08:09;97703.06;;;20.79;88.40
45327;BME280;31062;49.678;24.560;2022-08-14T08:11:11;97840.22;;;21.68;88.38
45327;BME280;31062;49.678;24.560;2022-08-14T08:13:59;97677.25;;;20.63;87.91
45327;BME280;31062;49.678;24.560;2022-08-14T08:16:47;97842.41;;;21.72;88.41
45327;BME280;31062;49.678;24.560;2022-08-14T08:19:35;97832.63;;;21.75;88.22
45327;BME280;31062;49.678;24.560;2022-08-14T08:22:25;97828.47;;;21.78;87.83
45327;BME280;31062;49.678;24.560;2022-08-14T08:25:11;97749.63;;;21.30;87.67
45327;BME280;31062;49.678;24.560;2022-08-14T08:28:06;97824.53;;;21.89;88.33
45327;BME280;31062;49.678;24.560;2022-08-14T08:31:04;97816.50;;;22.05;89.23
45327;BME280;31062;49.678;24.560;2022-08-14T08:33:52;97831.09;;;22.23;88.14
45327;BME280;31062;49.678;24.560;2022-08-14T08:36:39;97767.69;;;21.98;86.85
45327;BME280;31062;49.678;24.560;2022-08-14T08:39:26;97761.31;;;21.98;85.51
45327;BME280;31062;49.678;24.560;2022-08-14T08:42:31;97777.28;;;22.17;85.52
45327;BME280;31062;49.678;24.560;2022-08-14T08:45:28;97681.88;;;21.54;85.14
45327;BME280;31062;49.678;24.560;2022-08-14T08:48:14;97806.91;;;22.44;85.76
45327;BME280;31062;49.678;24.560;2022-08-14T08:51:05;97805.59;;;22.49;85.41
45327;BME280;31062;49.678;24.560;2022-08-14T08:54:08;97815.00;;;22.58;85.97
45327;BME280;31062;49.678;24.560;2022-08-14T08:57:10;97803.47;;;22.77;86.43
45327;BME280;31062;49.678;24.560;2022-08-14T09:00:00;97678.84;;;22.02;84.72
45327;BME280;31062;49.678;24.560;2022-08-14T09:02:55;97740.16;;;22.59;83.54
45327;BME280;31062;49.678;24.560;2022-08-14T09:05:52;97826.13;;;23.11;83.75
45327;BME280;31062;49.678;24.560;2022-08-14T09:08:38;97663.31;;;22.32;82.02
45327;BME280;31062;49.678;24.560;2022-08-14T09:11:26;97779.59;;;23.18;81.58
45327;BME280;31062;49.678;24.560;2022-08-14T09:14:12;97782.41;;;23.16;81.75
45327;BME280;31062;49.678;24.560;2022-08-14T09:16:58;97781.22;;;23.28;80.95
45327;BME280;31062;49.678;24.560;2022-08-14T09:19:45;97780.63;;;23.33;80.70
45327;BME280;31062;49.678;24.560;2022-08-14T09:22:35;97771.50;;;23.37;80.46
45327;BME280;31062;49.678;24.560;2022-08-14T09:25:33;97777.13;;;23.35;81.08
45327;BME280;31062;49.678;24.560;2022-08-14T09:28:40;97775.03;;;23.35;80.18
45327;BME280;31062;49.678;24.560;2022-08-14T09:31:27;97790.63;;;23.38;80.83
45327;BME280;31062;49.678;24.560;2022-08-14T09:37:54;97770.50;;;23.22;80.70
45327;BME280;31062;49.678;24.560;2022-08-14T09:40:58;97785.69;;;23.39;81.17
45327;BME280;31062;49.678;24.560;2022-08-14T09:44:19;97778.59;;;23.38;80.69
45327;BME280;31062;49.678;24.560;2022-08-14T09:47:16;97636.66;;;22.39;80.77
45327;BME280;31062;49.678;24.560;2022-08-14T09:50:01;97752.69;;;23.15;80.29
45327;BME280;31062;49.678;24.560;2022-08-14T09:52:54;97773.34;;;23.22;80.32
45327;BME280;31062;49.678;24.560;2022-08-14T09:55:57;97708.59;;;22.68;80.74
45327;BME280;31062;49.678;24.560;2022-08-14T09:58:45;97750.84;;;22.94;80.88
45327;BME280;31062;49.678;24.560;2022-08-14T10:01:35;97787.22;;;23.10;81.51
45327;BME280;31062;49.678;24.560;2022-08-14T10:04:24;97801.97;;;23.06;81.53
45327;BME280;31062;49.678;24.560;2022-08-14T10:07:29;97766.88;;;22.84;82.20
45327;BME280;31062;49.678;24.560;2022-08-14T10:10:45;97800.44;;;23.01;82.23
45327;BME280;31062;49.678;24.560;2022-08-14T10:13:51;97801.81;;;22.98;82.00
45327;BME280;31062;49.678;24.560;2022-08-14T10:16:43;97672.63;;;22.07;81.94
45327;BME280;31062;49.678;24.560;2022-08-14T10:19:29;97689.66;;;22.11;81.93
45327;BME280;31062;49.678;24.560;2022-08-14T10:22:24;97785.75;;;22.75;82.21
45327;BME280;31062;49.678;24.560;2022-08-14T10:25:46;97663.78;;;21.93;82.17
45327;BME280;31062;49.678;24.560;2022-08-14T10:28:40;97787.19;;;22.76;82.43
45327;BME280;31062;49.678;24.560;2022-08-14T10:31:55;97797.16;;;22.79;82.88
45327;BME280;31062;49.678;24.560;2022-08-14T10:34:41;97802.78;;;22.79;82.93
45327;BME280;31062;49.678;24.560;2022-08-14T10:37:36;97777.06;;;22.67;82.88
45327;BME280;31062;49.678;24.560;2022-08-14T10:40:30;97759.97;;;22.61;83.44
45327;BME280;31062;49.678;24.560;2022-08-14T10:43:29;97780.13;;;22.77;83.63
45327;BME280;31062;49.678;24.560;2022-08-14T10:46:17;97788.81;;;22.85;83.82
45327;BME280;31062;49.678;24.560;2022-08-14T10:49:25;97805.94;;;22.93;84.40
45327;BME280;31062;49.678;24.560;2022-08-14T10:52:19;97806.09;;;23.01;84.46
45327;BME280;31062;49.678;24.560;2022-08-14T10:55:15;97788.84;;;22.87;83.80
45327;BME280;31062;49.678;24.560;2022-08-14T10:58:00;97826.09;;;23.09;83.51
45327;BME280;31062;49.678;24.560;2022-08-14T11:00:56;97735.59;;;22.44;83.20
45327;BME280;31062;49.678;24.560;2022-08-14T11:03:42;97840.41;;;23.17;83.41
45327;BME280;31062;49.678;24.560;2022-08-14T11:06:51;97765.72;;;22.65;83.19
45327;BME280;31062;49.678;24.560;2022-08-14T11:09:37;97819.13;;;23.14;82.95
45327;BME280;31062;49.678;24.560;2022-08-14T11:12:48;97753.06;;;22.68;83.48
45327;BME280;31062;49.678;24.560;2022-08-14T11:15:35;97703.56;;;22.33;83.17
45327;BME280;31062;49.678;24.560;2022-08-14T11:18:22;97807.88;;;23.18;83.41
45327;BME280;31062;49.678;24.560;2022-08-14T11:21:20;97807.88;;;23.18;82.74
45327;BME280;31062;49.678;24.560;2022-08-14T11:24:10;97804.97;;;23.14;83.33
45327;BME280;31062;49.678;24.560;2022-08-14T11:27:19;97803.59;;;23.15;83.72
45327;BME280;31062;49.678;24.560;2022-08-14T11:30:27;97801.44;;;23.14;83.64
45327;BME280;31062;49.678;24.560;2022-08-14T11:33:34;97800.09;;;23.17;83.55
45327;BME280;31062;49.678;24.560;2022-08-14T11:36:25;97799.38;;;23.16;82.94
45327;BME280;31062;49.678;24.560;2022-08-14T11:39:32;97785.25;;;23.16;83.28
45327;BME280;31062;49.678;24.560;2022-08-14T11:42:24;97783.84;;;23.17;83.46
45327;BME280;31062;49.678;24.560;2022-08-14T11:45:34;97772.53;;;23.17;83.30
45327;BME280;31062;49.678;24.560;2022-08-14T11:48:22;97766.19;;;23.19;83.96
45327;BME280;31062;49.678;24.560;2022-08-14T11:51:28;97761.91;;;23.16;84.06
45327;BME280;31062;49.678;24.560;2022-08-14T11:54:20;97761.38;;;23.26;83.80
45327;BME280;31062;49.678;24.560;2022-08-14T11:57:19;97668.81;;;22.58;83.67
45327;BME280;31062;49.678;24.560;2022-08-14T12:00:10;97792.66;;;23.34;83.87
45327;BME280;31062;49.678;24.560;2022-08-14T12:03:04;97767.28;;;23.38;83.68
45327;BME280;31062;49.678;24.560;2022-08-14T12:05:50;97751.50;;;23.27;83.32
45327;BME280;31062;49.678;24.560;2022-08-14T12:08:37;97766.00;;;23.45;83.39
45327;BME280;31062;49.678;24.560;2022-08-14T12:11:23;97493.72;;;21.56;83.05
45327;BME280;31062;49.678;24.560;2022-08-14T12:14:10;97670.78;;;22.84;82.79
45327;BME280;31062;49.678;24.560;2022-08-14T12:17:15;97776.16;;;23.56;83.45
45327;BME280;31062;49.678;24.560;2022-08-14T12:20:08;97710.53;;;23.28;83.80
45327;BME280;31062;49.678;24.560;2022-08-14T12:23:00;97682.94;;;22.90;83.08
45327;BME280;31062;49.678;24.560;2022-08-14T12:26:02;97758.06;;;23.71;83.06
45327;BME280;31062;49.678;24.560;2022-08-14T12:29:10;97746.75;;;23.73;82.52
45327;BME280;31062;49.678;24.560;2022-08-14T12:32:02;97746.13;;;23.77;82.13
45327;BME280;31062;49.678;24.560;2022-08-14T12:34:56;97640.69;;;22.98;83.12
45327;BME280;31062;49.678;24.560;2022-08-14T12:37:50;97620.75;;;22.90;82.64
45327;BME280;31062;49.678;24.560;2022-08-14T12:40:52;97616.59;;;22.95;82.28
45327;BME280;31062;49.678;24.560;2022-08-14T12:46:38;97678.69;;;23.63;82.38
45327;BME280;31062;49.678;24.560;2022-08-14T12:49:32;97688.91;;;23.82;81.86
45327;BME280;31062;49.678;24.560;2022-08-14T12:52:39;97700.50;;;23.98;81.07
45327;BME280;31062;49.678;24.560;2022-08-14T12:55:57;97601.84;;;23.39;81.04
45327;BME280;31062;49.678;24.560;2022-08-14T12:59:03;97649.16;;;23.74;80.24
45327;BME280;31062;49.678;24.560;2022-08-14T13:01:55;97686.56;;;24.13;81.29
45327;BME280;31062;49.678;24.560;2022-08-14T13:04:49;97655.41;;;24.13;80.68
45327;BME280;31062;49.678;24.560;2022-08-14T13:07:39;97641.94;;;24.13;81.16
45327;BME280;31062;49.678;24.560;2022-08-14T13:10:33;97637.22;;;24.26;80.34
45327;BME280;31062;49.678;24.560;2022-08-14T13:13:36;97619.56;;;24.29;80.21
45327;BME280;31062;49.678;24.560;2022-08-14T13:16:29;97603.31;;;24.32;80.43
45327;BME280;31062;49.678;24.560;2022-08-14T13:19:24;97604.06;;;24.34;80.62
45327;BME280;31062;49.678;24.560;2022-08-14T13:22:12;97516.09;;;23.72;81.65
45327;BME280;31062;49.678;24.560;2022-08-14T13:25:20;97496.94;;;23.67;80.14
45327;BME280;31062;49.678;24.560;2022-08-14T13:28:07;97609.88;;;24.47;79.01
45327;BME280;31062;49.678;24.560;2022-08-14T13:30:56;97456.63;;;23.68;78.94
45327;BME280;31062;49.678;24.560;2022-08-14T13:33:44;97603.75;;;24.66;79.70
45327;BME280;31062;49.678;24.560;2022-08-14T13:36:31;97491.00;;;23.98;79.03
45327;BME280;31062;49.678;24.560;2022-08-14T13:39:38;97597.53;;;24.78;78.99
45327;BME280;31062;49.678;24.560;2022-08-14T13:42:25;97459.75;;;23.88;78.36
45327;BME280;31062;49.678;24.560;2022-08-14T13:45:16;97585.50;;;24.81;79.24
45327;BME280;31062;49.678;24.560;2022-08-14T13:48:04;97458.50;;;24.04;79.18
45327;BME280;31062;49.678;24.560;2022-08-14T13:50:54;97562.78;;;24.77;78.48
45327;BME280;31062;49.678;24.560;2022-08-14T13:53:45;97141.78;;;21.91;77.86
45327;BME280;31062;49.678;24.560;2022-08-14T13:56:53;97574.34;;;24.98;78.66
45327;BME280;31062;49.678;24.560;2022-08-14T13:59:46;97474.53;;;24.39;78.30
45327;BME280;31062;49.678;24.560;2022-08-14T14:02:40;97569.53;;;25.10;77.22
45327;BME280;31062;49.678;24.560;2022-08-14T14:05:34;97525.94;;;24.79;77.31
45327;BME280;31062;49.678;24.560;2022-08-14T14:08:45;97556.03;;;25.09;77.32
45327;BME280;31062;49.678;24.560;2022-08-14T14:11:32;97586.03;;;25.30;76.70
45327;BME280;31062;49.678;24.560;2022-08-14T14:14:22;97559.63;;;25.11;75.95
45327;BME280;31062;49.678;24.560;2022-08-14T14:17:28;97463.94;;;24.42;75.62
45327;BME280;31062;49.678;24.560;2022-08-14T14:20:18;97473.16;;;24.42;76.11
45327;BME280;31062;49.678;24.560;2022-08-14T14:23:21;97586.63;;;25.18;76.49
45327;BME280;31062;49.678;24.560;2022-08-14T14:26:08;97588.75;;;25.18;76.64
45327;BME280;31062;49.678;24.560;2022-08-14T14:28:59;97615.84;;;25.35;76.27
45327;BME280;31062;49.678;24.560;2022-08-14T14:31:47;97648.53;;;25.40;76.23
45327;BME280;31062;49.678;24.560;2022-08-14T14:34:34;97602.97;;;25.20;75.81
45327;BME280;31062;49.678;24.560;2022-08-14T14:37:22;97641.44;;;25.41;76.02
45327;BME280;31062;49.678;24.560;2022-08-14T14:40:10;97647.81;;;25.38;75.84
45327;BME280;31062;49.678;24.560;2022-08-14T14:43:21;97669.78;;;25.39;76.32
45327;BME280;31062;49.678;24.560;2022-08-14T14:46:08;97601.97;;;24.93;76.03
45327;BME280;31062;49.678;24.560;2022-08-14T14:49:07;97661.22;;;25.31;76.55
45327;BME280;31062;49.678;24.560;2022-08-14T14:51:58;97666.88;;;25.31;75.97
45327;BME280;31062;49.678;24.560;2022-08-14T14:54:47;97543.81;;;24.32;76.41
45327;BME280;31062;49.678;24.560;2022-08-14T14:57:34;97683.84;;;25.27;76.94
45327;BME280;31062;49.678;24.560;2022-08-14T15:00:20;97675.34;;;25.25;77.09
45327;BME280;31062;49.678;24.560;2022-08-14T15:03:05;97649.59;;;25.07;76.45
45327;BME280;31062;49.678;24.560;2022-08-14T15:05:52;97626.78;;;24.95;77.23
45327;BME280;31062;49.678;24.560;2022-08-14T15:08:38;97682.47;;;25.30;77.08
45327;BME280;31062;49.678;24.560;2022-08-14T15:11:43;97546.81;;;24.42;77.01